createdAt,value
2018-09-20T00:02:23.593Z,17.80
2018-09-20T00:04:51.650Z,17.70
2018-09-20T00:07:19.658Z,17.70
2018-09-20T00:09:47.942Z,17.60
2018-09-20T00:12:16.030Z,17.60
2018-09-20T00:14:44.033Z,17.60
2018-09-20T00:17:12.295Z,17.60
2018-09-20T00:19:40.353Z,17.60
2018-09-20T00:22:08.378Z,17.60
2018-09-20T00:24:36.650Z,17.60
2018-09-20T00:27:04.838Z,17.50
2018-09-20T00:29:33.125Z,17.50
2018-09-20T00:32:01.426Z,17.50
2018-09-20T00:34:29.429Z,17.40
2018-09-20T00:36:57.435Z,17.30
2018-09-20T00:39:25.766Z,17.30
2018-09-20T00:41:53.851Z,17.20
2018-09-20T00:44:22.241Z,17.20
2018-09-20T00:46:50.838Z,17.10
2018-09-20T00:49:18.837Z,17.10
2018-09-20T00:51:46.834Z,17.10
2018-09-20T00:54:15.092Z,17.10
2018-09-20T00:56:43.108Z,17.10
2018-09-20T00:59:11.107Z,17.10
2018-09-20T01:01:39.650Z,17.00
2018-09-20T01:04:07.655Z,17.00
2018-09-20T01:06:35.646Z,17.00
2018-09-20T01:09:05.641Z,17.00
2018-09-20T01:11:33.649Z,16.90
2018-09-20T01:14:01.921Z,16.90
2018-09-20T01:16:30.002Z,16.90
2018-09-20T01:18:58.009Z,16.90
2018-09-20T01:21:26.278Z,16.80
2018-09-20T01:23:54.285Z,16.80
2018-09-20T01:26:22.343Z,16.80
2018-09-20T01:28:50.631Z,16.70
2018-09-20T01:31:18.714Z,16.70
2018-09-20T01:33:47.417Z,16.70
2018-09-20T01:36:15.493Z,16.70
2018-09-20T01:38:43.554Z,16.70
2018-09-20T01:41:11.761Z,16.60
2018-09-20T01:43:39.849Z,16.60
2018-09-20T01:46:07.858Z,16.60
2018-09-20T01:48:36.125Z,16.80
2018-09-20T01:51:04.127Z,16.80
2018-09-20T01:53:32.122Z,16.90
2018-09-20T01:56:00.375Z,16.80
2018-09-20T01:58:28.417Z,16.70
2018-09-20T02:00:56.450Z,16.60
2018-09-20T02:03:24.725Z,16.50
2018-09-20T02:05:52.732Z,16.50
2018-09-20T02:08:20.998Z,16.60
2018-09-20T02:10:49.085Z,16.70
2018-09-20T02:13:17.086Z,16.70
2018-09-20T02:15:45.354Z,16.60
2018-09-20T02:18:13.349Z,16.60
2018-09-20T02:20:41.397Z,16.60
2018-09-20T02:23:09.610Z,16.40
2018-09-20T02:25:37.622Z,16.30
2018-09-20T02:28:05.978Z,16.30
2018-09-20T02:30:34.951Z,16.20
2018-09-20T02:33:03.027Z,16.30
2018-09-20T02:35:31.255Z,16.40
2018-09-20T02:37:59.250Z,16.40
2018-09-20T02:40:27.263Z,16.40
2018-09-20T02:42:55.504Z,16.40
2018-09-20T02:45:23.596Z,16.40
2018-09-20T02:47:51.881Z,16.40
2018-09-20T02:50:19.966Z,16.40
2018-09-20T02:52:48.260Z,16.40
2018-09-20T02:55:16.347Z,16.50
2018-09-20T02:57:44.341Z,16.60
2018-09-20T03:00:13.530Z,16.60
2018-09-20T03:02:41.617Z,16.50
2018-09-20T03:05:09.613Z,16.60
2018-09-20T03:07:37.882Z,16.70
2018-09-20T03:10:05.897Z,16.70
2018-09-20T03:12:34.159Z,16.80
2018-09-20T03:15:02.240Z,16.80
2018-09-20T03:17:30.246Z,16.80
2018-09-20T03:19:58.514Z,16.80
2018-09-20T03:22:26.549Z,16.80
2018-09-20T03:24:54.577Z,16.80
2018-09-20T03:27:22.863Z,16.70
2018-09-20T03:29:50.945Z,16.60
2018-09-20T03:32:19.219Z,16.50
2018-09-20T03:34:47.422Z,16.50
2018-09-20T03:37:15.426Z,16.50
2018-09-20T03:39:43.427Z,16.50
2018-09-20T03:42:11.689Z,16.40
2018-09-20T03:44:39.766Z,16.30
2018-09-20T03:47:07.768Z,16.30
2018-09-20T03:49:36.039Z,16.40
2018-09-20T03:52:05.298Z,16.30
2018-09-20T03:54:33.293Z,16.20
2018-09-20T03:57:01.306Z,16.20
2018-09-20T03:59:29.593Z,16.20
2018-09-20T04:01:57.689Z,16.10
2018-09-20T04:04:25.770Z,15.90
2018-09-20T04:06:54.059Z,15.80
2018-09-20T04:09:22.057Z,15.80
2018-09-20T04:11:50.266Z,15.80
2018-09-20T04:14:18.380Z,16.00
2018-09-20T04:16:46.496Z,16.10
2018-09-20T04:19:14.790Z,16.10
2018-09-20T04:21:42.866Z,16.00
2018-09-20T04:24:10.955Z,16.00
2018-09-20T04:26:39.246Z,16.00
2018-09-20T04:29:07.243Z,16.00
2018-09-20T04:31:43.241Z,16.00
2018-09-20T04:34:11.478Z,15.90
2018-09-20T04:36:39.561Z,15.80
2018-09-20T04:39:08.674Z,15.80
2018-09-20T04:41:37.070Z,15.80
2018-09-20T04:44:05.155Z,15.70
2018-09-20T04:46:33.217Z,15.70
2018-09-20T04:49:01.547Z,15.60
2018-09-20T04:51:29.652Z,15.60
2018-09-20T04:53:57.677Z,15.50
2018-09-20T04:56:25.993Z,15.40
2018-09-20T04:58:54.066Z,15.40
2018-09-20T05:01:22.069Z,15.30
2018-09-20T05:03:50.334Z,15.30
2018-09-20T05:06:18.342Z,15.30
2018-09-20T05:08:46.411Z,15.30
2018-09-20T05:11:14.695Z,15.30
2018-09-20T05:13:42.695Z,15.30
2018-09-20T05:16:10.889Z,15.30
2018-09-20T05:18:38.942Z,15.40
2018-09-20T05:21:06.965Z,15.50
2018-09-20T05:23:35.264Z,15.50
2018-09-20T05:26:03.393Z,15.60
2018-09-20T05:28:31.478Z,15.60
2018-09-20T05:30:59.777Z,15.70
2018-09-20T05:33:28.038Z,15.80
2018-09-20T05:35:56.047Z,15.80
2018-09-20T05:38:24.237Z,15.90
2018-09-20T05:40:52.226Z,15.80
2018-09-20T05:43:20.554Z,15.80
2018-09-20T05:45:48.625Z,15.90
2018-09-20T05:48:16.646Z,16.00
2018-09-20T05:50:45.266Z,16.10
2018-09-20T05:53:13.285Z,16.30
2018-09-20T05:55:41.286Z,16.40
2018-09-20T05:58:09.517Z,16.40
2018-09-20T06:00:37.803Z,16.50
2018-09-20T06:03:06.289Z,16.60
2018-09-20T06:05:34.294Z,16.70
2018-09-20T06:08:02.302Z,16.80
2018-09-20T06:10:30.498Z,16.90
2018-09-20T06:12:58.526Z,17.00
2018-09-20T06:15:26.546Z,17.10
2018-09-20T06:17:54.906Z,17.10
2018-09-20T06:20:22.918Z,17.20
2018-09-20T06:22:50.971Z,17.30
2018-09-20T06:25:19.163Z,17.40
2018-09-20T06:27:47.451Z,17.40
2018-09-20T06:30:15.453Z,17.60
2018-09-20T06:32:43.873Z,17.70
2018-09-20T06:35:12.083Z,17.80
2018-09-20T06:37:40.090Z,18.00
2018-09-20T06:40:08.178Z,18.10
2018-09-20T06:42:36.466Z,18.20
2018-09-20T06:45:04.483Z,18.30
2018-09-20T06:47:32.497Z,18.30
2018-09-20T06:50:00.714Z,18.50
2018-09-20T06:52:28.802Z,18.80
2018-09-20T06:54:56.803Z,19.10
2018-09-20T06:57:25.065Z,19.30
2018-09-20T06:59:53.069Z,19.60
2018-09-20T07:02:21.070Z,19.80
2018-09-20T07:04:49.323Z,20.00
2018-09-20T07:07:17.321Z,20.10
2018-09-20T07:09:45.594Z,20.30
2018-09-20T07:12:13.585Z,20.50
2018-09-20T07:14:42.699Z,20.70
2018-09-20T07:17:10.883Z,20.90
2018-09-20T07:19:39.164Z,21.10
2018-09-20T07:22:07.170Z,21.30
2018-09-20T07:24:35.172Z,21.40
2018-09-20T07:27:03.414Z,21.50
2018-09-20T07:29:31.494Z,21.50
2018-09-20T07:31:59.790Z,21.60
2018-09-20T07:34:27.869Z,21.80
2018-09-20T07:36:55.945Z,21.80
2018-09-20T07:39:24.240Z,21.90
2018-09-20T07:41:52.241Z,22.00
2018-09-20T07:44:20.313Z,22.10
2018-09-20T07:46:48.595Z,22.30
2018-09-20T07:49:16.597Z,22.40
2018-09-20T07:51:44.662Z,22.60
2018-09-20T07:54:12.857Z,22.70
2018-09-20T07:56:40.897Z,22.90
2018-09-20T07:59:08.845Z,23.10
2018-09-20T08:01:37.133Z,23.40
2018-09-20T08:04:05.058Z,23.60
2018-09-20T08:06:33.058Z,23.80
2018-09-20T08:09:01.356Z,24.20
2018-09-20T08:11:29.433Z,24.50
2018-09-20T08:13:57.554Z,24.70
2018-09-20T08:16:26.827Z,24.70
2018-09-20T08:18:54.837Z,24.70
2018-09-20T08:21:22.867Z,24.60
2018-09-20T08:23:51.090Z,24.50
2018-09-20T08:26:19.170Z,24.40
2018-09-20T08:28:47.172Z,24.40
2018-09-20T08:31:15.434Z,24.30
2018-09-20T08:33:43.526Z,24.30
2018-09-20T08:36:11.513Z,24.30
2018-09-20T08:38:39.718Z,24.40
2018-09-20T08:41:07.882Z,24.30
2018-09-20T08:43:35.966Z,24.20
2018-09-20T08:46:04.350Z,24.10
2018-09-20T08:48:32.370Z,24.00
2018-09-20T08:51:00.432Z,23.90
2018-09-20T08:53:28.667Z,24.00
2018-09-20T08:55:56.665Z,24.00
2018-09-20T08:58:24.661Z,24.00
2018-09-20T09:00:52.961Z,24.20
2018-09-20T09:03:21.046Z,24.20
2018-09-20T09:05:49.046Z,24.30
2018-09-20T09:08:17.300Z,24.30
2018-09-20T09:10:45.329Z,24.50
2018-09-20T09:13:13.786Z,24.60
2018-09-20T09:15:42.074Z,24.70
2018-09-20T09:18:11.062Z,24.60
2018-09-20T09:21:10.506Z,24.70
2018-09-20T09:23:38.519Z,24.90
2018-09-20T09:26:06.514Z,24.90
2018-09-20T09:28:34.767Z,25.20
2018-09-20T09:31:02.833Z,25.50
2018-09-20T09:33:30.834Z,25.60
2018-09-20T09:35:59.106Z,25.50
2018-09-20T09:38:27.397Z,25.60
2018-09-20T09:40:55.591Z,25.50
2018-09-20T09:43:23.583Z,25.80
2018-09-20T09:45:51.861Z,25.90
2018-09-20T09:48:20.151Z,26.10
2018-09-20T09:50:48.145Z,26.20
2018-09-20T09:53:16.418Z,26.30
2018-09-20T09:55:44.421Z,26.40
2018-09-20T09:58:12.492Z,26.50
2018-09-20T10:00:42.082Z,26.60
2018-09-20T10:03:10.185Z,26.60
2018-09-20T10:05:38.373Z,26.70
2018-09-20T10:08:06.670Z,26.50
2018-09-20T10:10:34.807Z,26.60
2018-09-20T10:13:02.806Z,26.80
2018-09-20T10:15:31.013Z,26.70
2018-09-20T10:20:34.047Z,26.90
2018-09-20T10:23:02.109Z,27.10
2018-09-20T10:25:30.829Z,27.30
2018-09-20T10:27:58.875Z,27.40
2018-09-20T10:30:26.833Z,27.30
2018-09-20T10:32:55.078Z,27.30
2018-09-20T10:35:23.068Z,27.60
2018-09-20T10:37:51.462Z,27.80
2018-09-20T10:40:19.497Z,27.80
2018-09-20T10:42:47.502Z,27.80
2018-09-20T10:45:15.702Z,27.70
2018-09-20T10:47:43.790Z,27.70
2018-09-20T10:50:12.078Z,27.60
2018-09-20T10:52:40.093Z,27.40
2018-09-20T10:55:08.142Z,27.30
2018-09-20T10:57:36.447Z,27.30
2018-09-20T11:00:04.736Z,27.20
2018-09-20T11:02:32.735Z,27.10
2018-09-20T11:05:00.989Z,27.00
2018-09-20T11:07:29.077Z,27.10
2018-09-20T11:09:57.089Z,27.30
2018-09-20T11:12:25.346Z,27.40
2018-09-20T11:14:53.358Z,27.60
2018-09-20T11:17:21.362Z,27.70
2018-09-20T11:19:49.953Z,27.60
2018-09-20T11:22:17.974Z,27.60
2018-09-20T11:24:45.969Z,27.60
2018-09-20T11:27:14.263Z,27.60
2018-09-20T11:29:42.269Z,27.60
2018-09-20T11:32:10.269Z,27.80
2018-09-20T11:34:38.719Z,27.90
2018-09-20T11:37:06.806Z,27.90
2018-09-20T11:39:34.803Z,27.80
2018-09-20T11:42:03.078Z,27.90
2018-09-20T11:44:31.158Z,28.00
2018-09-20T11:46:59.166Z,28.10
2018-09-20T11:49:27.429Z,28.20
2018-09-20T11:51:55.434Z,28.20
2018-09-20T11:54:23.434Z,28.10
2018-09-20T11:56:51.786Z,28.10
2018-09-20T11:59:19.813Z,28.10
2018-09-20T12:01:47.846Z,28.10
2018-09-20T12:04:16.138Z,28.10
2018-09-20T12:06:44.151Z,28.10
2018-09-20T12:09:12.150Z,28.20
2018-09-20T12:11:40.594Z,28.10
2018-09-20T12:14:08.681Z,28.00
2018-09-20T12:16:36.677Z,28.10
2018-09-20T12:19:05.154Z,28.00
2018-09-20T12:24:12.594Z,28.30
2018-09-20T12:26:40.594Z,28.30
2018-09-20T12:29:08.602Z,28.30
2018-09-20T12:31:36.893Z,28.30
2018-09-20T12:34:04.922Z,28.50
2018-09-20T12:36:32.942Z,28.70
2018-09-20T12:39:01.295Z,28.60
2018-09-20T12:41:29.310Z,28.60
2018-09-20T12:43:57.307Z,28.60
2018-09-20T12:46:25.494Z,28.50
2018-09-20T12:48:54.187Z,28.50
2018-09-20T12:51:22.439Z,28.40
2018-09-20T12:53:50.442Z,28.40
2018-09-20T12:56:18.439Z,28.50
2018-09-20T12:58:50.166Z,28.40
2018-09-20T13:01:18.971Z,28.50
2018-09-20T13:03:46.965Z,28.60
2018-09-20T13:06:15.337Z,28.50
2018-09-20T13:08:43.640Z,28.40
2018-09-20T13:11:11.652Z,28.40
2018-09-20T13:13:40.505Z,28.40
2018-09-20T13:16:08.914Z,28.30
2018-09-20T13:18:36.915Z,28.20
2018-09-20T13:21:04.974Z,28.20
2018-09-20T13:23:34.187Z,28.30
2018-09-20T13:26:02.277Z,28.30
2018-09-20T13:28:30.294Z,28.40
2018-09-20T13:30:58.546Z,28.40
2018-09-20T13:33:26.540Z,28.40
2018-09-20T13:35:54.543Z,28.30
2018-09-20T13:38:22.761Z,28.30
2018-09-20T13:40:50.758Z,28.20
2018-09-20T13:43:18.775Z,28.20
2018-09-20T13:45:47.006Z,28.30
2018-09-20T13:48:15.011Z,28.40
2018-09-20T13:50:43.046Z,28.40
2018-09-20T13:53:11.295Z,28.40
2018-09-20T13:55:39.583Z,28.30
2018-09-20T13:58:07.637Z,28.40
2018-09-20T14:00:35.958Z,28.40
2018-09-20T14:03:03.958Z,28.50
2018-09-20T14:05:31.958Z,28.60
2018-09-20T14:08:00.209Z,28.50
2018-09-20T14:10:28.210Z,28.40
2018-09-20T14:12:56.205Z,28.30
2018-09-20T14:15:25.863Z,28.40
2018-09-20T14:17:54.006Z,28.40
2018-09-20T14:20:22.071Z,28.30
2018-09-20T14:22:50.062Z,28.30
2018-09-20T14:25:19.387Z,28.30
2018-09-20T14:27:47.455Z,28.30
2018-09-20T14:30:15.515Z,28.40
2018-09-20T14:32:43.714Z,28.50
2018-09-20T14:35:11.798Z,28.50
2018-09-20T14:37:39.799Z,28.60
2018-09-20T14:40:08.064Z,28.70
2018-09-20T14:42:36.159Z,28.70
2018-09-20T14:45:04.197Z,28.60
2018-09-20T14:47:32.431Z,28.50
2018-09-20T14:50:00.624Z,28.30
2018-09-20T14:52:28.645Z,28.30
2018-09-20T14:54:56.775Z,28.30
2018-09-20T14:57:24.966Z,28.40
2018-09-20T14:59:52.978Z,28.50
2018-09-20T15:02:21.205Z,28.50
2018-09-20T15:04:49.518Z,28.40
2018-09-20T15:07:17.814Z,28.40
2018-09-20T15:09:46.104Z,28.50
2018-09-20T15:12:14.361Z,28.50
2018-09-20T15:14:42.358Z,28.50
2018-09-20T15:17:10.578Z,28.40
2018-09-20T15:19:38.645Z,28.50
2018-09-20T15:22:06.926Z,28.40
2018-09-20T15:24:35.227Z,28.30
2018-09-20T15:27:03.209Z,28.40
2018-09-20T15:29:31.214Z,28.40
2018-09-20T15:31:59.479Z,28.40
2018-09-20T15:34:27.483Z,28.30
2018-09-20T15:36:55.645Z,28.30
2018-09-20T15:39:23.901Z,28.30
2018-09-20T15:41:51.909Z,28.30
2018-09-20T15:44:19.926Z,28.30
2018-09-20T15:46:49.211Z,28.30
2018-09-20T15:49:17.263Z,28.40
2018-09-20T15:51:45.267Z,28.30
2018-09-20T15:54:13.449Z,28.40
2018-09-20T15:56:41.546Z,28.40
2018-09-20T15:59:09.537Z,28.30
2018-09-20T16:01:37.922Z,28.10
2018-09-20T16:04:05.946Z,28.00
2018-09-20T16:06:33.991Z,27.80
2018-09-20T16:09:02.178Z,27.70
2018-09-20T16:11:32.491Z,27.60
2018-09-20T16:14:00.507Z,27.50
2018-09-20T16:16:28.890Z,27.40
2018-09-20T16:18:56.940Z,27.30
2018-09-20T16:21:25.053Z,27.20
2018-09-20T16:23:53.340Z,27.10
2018-09-20T16:26:21.430Z,27.00
2018-09-20T16:29:03.875Z,27.00
2018-09-20T16:31:49.025Z,26.90
2018-09-20T16:34:36.263Z,26.80
2018-09-20T16:37:19.178Z,26.70
2018-09-20T16:39:48.325Z,26.60
2018-09-20T16:42:19.542Z,26.50
2018-09-20T16:44:47.564Z,26.30
2018-09-20T16:47:15.567Z,26.20
2018-09-20T16:49:43.626Z,26.10
2018-09-20T16:52:11.678Z,26.00
2018-09-20T16:54:39.710Z,25.80
2018-09-20T16:57:08.769Z,25.70
2018-09-20T16:59:36.769Z,25.50
2018-09-20T17:02:04.858Z,25.30
2018-09-20T17:04:32.945Z,25.10
2018-09-20T17:07:01.073Z,25.00
2018-09-20T17:09:29.074Z,24.80
2018-09-20T17:11:57.193Z,24.60
2018-09-20T17:14:25.291Z,24.50
2018-09-20T17:16:53.466Z,24.30
2018-09-20T17:19:21.604Z,24.20
2018-09-20T17:21:49.641Z,23.90
2018-09-20T17:24:18.022Z,23.70
2018-09-20T17:26:46.087Z,23.70
2018-09-20T17:29:14.100Z,23.50
2018-09-20T17:31:42.275Z,23.50
2018-09-20T17:34:10.319Z,23.40
2018-09-20T17:36:38.862Z,23.40
2018-09-20T17:39:11.438Z,23.20
2018-09-20T17:41:40.277Z,23.10
2018-09-20T17:44:09.037Z,22.90
2018-09-20T17:46:37.233Z,22.80
2018-09-20T17:49:05.353Z,22.60
2018-09-20T17:51:33.818Z,22.50
2018-09-20T17:54:02.227Z,22.40
2018-09-20T17:56:30.902Z,22.30
2018-09-20T17:58:59.205Z,22.30
2018-09-20T18:01:34.057Z,22.30
2018-09-20T18:04:02.174Z,22.20
2018-09-20T18:06:30.192Z,22.10
2018-09-20T18:08:58.267Z,21.90
2018-09-20T18:11:26.331Z,21.80
2018-09-20T18:13:54.458Z,21.70
2018-09-20T18:16:22.457Z,21.50
2018-09-20T18:18:50.576Z,21.50
2018-09-20T18:21:18.611Z,21.40
2018-09-20T18:23:46.678Z,21.30
2018-09-20T18:26:14.741Z,21.20
2018-09-20T18:28:42.861Z,21.10
2018-09-20T18:31:10.944Z,21.00
2018-09-20T18:33:39.021Z,20.90
2018-09-20T18:36:07.210Z,20.80
2018-09-20T18:38:35.502Z,20.80
2018-09-20T18:41:03.535Z,20.80
2018-09-20T18:43:31.680Z,20.80
2018-09-20T18:45:59.759Z,20.80
2018-09-20T18:48:27.754Z,20.60
2018-09-20T18:50:56.350Z,20.50
2018-09-20T18:53:24.525Z,20.40
2018-09-20T18:55:52.607Z,20.40
2018-09-20T18:58:20.781Z,20.30
2018-09-20T19:00:51.315Z,20.30
2018-09-20T19:03:19.351Z,20.20
2018-09-20T19:05:47.601Z,20.10
2018-09-20T19:08:15.622Z,20.10
2018-09-20T19:10:43.643Z,20.10
2018-09-20T19:13:11.762Z,20.10
2018-09-20T19:15:39.846Z,20.00
2018-09-20T19:18:07.853Z,19.90
2018-09-20T19:20:36.210Z,19.90
2018-09-20T19:23:04.228Z,19.90
2018-09-20T19:25:32.230Z,19.80
2018-09-20T19:28:00.295Z,19.70
2018-09-20T19:30:28.651Z,19.70
2018-09-20T19:32:56.694Z,19.60
2018-09-20T19:35:24.714Z,19.50
2018-09-20T19:37:53.005Z,19.40
2018-09-20T19:40:21.085Z,19.40
2018-09-20T19:42:49.177Z,19.40
2018-09-20T19:45:17.466Z,19.40
2018-09-20T19:47:45.473Z,19.40
2018-09-20T19:50:13.534Z,19.40
2018-09-20T19:52:41.917Z,19.30
2018-09-20T19:55:09.966Z,19.30
2018-09-20T19:57:37.997Z,19.20
2018-09-20T20:00:06.173Z,19.20
2018-09-20T20:02:34.263Z,19.10
2018-09-20T20:05:02.310Z,19.00
2018-09-20T20:07:30.530Z,19.00
2018-09-20T20:09:58.537Z,19.00
2018-09-20T20:12:26.547Z,18.90
2018-09-20T20:14:54.941Z,18.80
2018-09-20T20:17:23.070Z,18.80
2018-09-20T20:19:51.367Z,19.00
2018-09-20T20:22:19.441Z,19.00
2018-09-20T20:24:47.442Z,18.90
2018-09-20T20:27:15.523Z,18.70
2018-09-20T20:29:43.694Z,18.60
2018-09-20T20:32:18.134Z,18.60
2018-09-20T20:34:46.310Z,18.60
2018-09-20T20:37:14.317Z,18.50
2018-09-20T20:39:42.342Z,18.50
2018-09-20T20:42:10.467Z,18.40
2018-09-20T20:44:38.755Z,18.30
2018-09-20T20:47:06.766Z,18.20
2018-09-20T20:49:34.777Z,18.20
2018-09-20T20:52:02.910Z,18.20
2018-09-20T20:54:30.990Z,18.20
2018-09-20T20:56:58.990Z,18.20
2018-09-20T20:59:27.026Z,18.30
2018-09-20T21:01:55.074Z,18.30
2018-09-20T21:04:23.116Z,18.30
2018-09-20T21:06:51.098Z,18.20
2018-09-20T21:09:19.190Z,18.40
2018-09-20T21:11:47.257Z,18.30
2018-09-20T21:14:15.277Z,18.20
2018-09-20T21:16:43.315Z,18.10
2018-09-20T21:19:11.389Z,18.00
2018-09-20T21:21:39.449Z,17.90
2018-09-20T21:24:07.454Z,18.10
2018-09-20T21:26:35.611Z,18.00
2018-09-20T21:29:03.632Z,17.90
2018-09-20T21:31:31.670Z,17.80
2018-09-20T21:33:59.685Z,17.70
2018-09-20T21:36:27.730Z,17.60
2018-09-20T21:38:56.088Z,17.60
2018-09-20T21:41:24.078Z,17.50
2018-09-20T21:43:52.367Z,17.60
2018-09-20T21:46:20.369Z,17.50
2018-09-20T21:48:48.378Z,17.30
2018-09-20T21:51:16.555Z,17.30
2018-09-20T21:53:44.450Z,17.20
2018-09-20T21:56:12.531Z,17.30
2018-09-20T21:58:40.876Z,17.20
2018-09-20T22:01:12.756Z,17.20
2018-09-20T22:03:41.038Z,17.20
2018-09-20T22:06:09.093Z,17.20
2018-09-20T22:08:37.275Z,17.20
2018-09-20T22:11:05.398Z,17.20
2018-09-20T22:13:33.446Z,17.10
2018-09-20T22:16:01.544Z,17.00
2018-09-20T22:18:29.546Z,16.90
2018-09-20T22:20:57.586Z,16.80
2018-09-20T22:23:25.665Z,16.80
2018-09-20T22:25:53.754Z,16.80
2018-09-20T22:28:21.884Z,16.90
2018-09-20T22:30:49.885Z,16.80
2018-09-20T22:33:17.942Z,16.80
2018-09-20T22:35:45.994Z,16.80
2018-09-20T22:38:14.083Z,16.70
2018-09-20T22:40:42.123Z,16.70
2018-09-20T22:43:10.121Z,16.70
2018-09-20T22:45:38.234Z,16.60
2018-09-20T22:48:06.551Z,16.60
2018-09-20T22:50:34.625Z,16.60
2018-09-20T22:53:02.629Z,16.60
2018-09-20T22:55:30.691Z,16.50
2018-09-20T22:57:58.698Z,16.60
2018-09-20T23:00:26.776Z,16.70
2018-09-20T23:02:55.986Z,16.70
2018-09-20T23:05:24.270Z,16.60
2018-09-20T23:07:52.367Z,16.50
2018-09-20T23:10:20.561Z,16.50
2018-09-20T23:12:48.594Z,16.50
2018-09-20T23:15:16.696Z,16.40
2018-09-20T23:17:44.817Z,16.40
2018-09-20T23:20:13.006Z,16.30
2018-09-20T23:22:41.061Z,16.30
2018-09-20T23:25:09.087Z,16.20
2018-09-20T23:27:37.151Z,16.30
2018-09-20T23:30:05.158Z,16.20
2018-09-20T23:32:33.181Z,16.30
2018-09-20T23:35:01.290Z,16.30
2018-09-20T23:37:29.339Z,16.20
2018-09-20T23:39:57.338Z,16.10
2018-09-20T23:42:25.444Z,16.40
2018-09-20T23:44:53.481Z,16.60
2018-09-20T23:47:21.494Z,16.60
2018-09-20T23:49:50.496Z,16.50
2018-09-20T23:52:18.521Z,16.30
2018-09-20T23:54:46.545Z,16.20
2018-09-20T23:57:14.581Z,16.20
2018-09-20T23:59:42.594Z,16.20
